createdAt,value
2023-01-17T00:01:33.934Z,98805.26
2023-01-17T00:04:22.265Z,98798.54
2023-01-17T00:07:14.103Z,98798.83
2023-01-17T00:10:07.774Z,98798.48
2023-01-17T00:12:42.699Z,98793.77
2023-01-17T00:16:14.648Z,98791.71
2023-01-17T00:19:16.215Z,98792.94
2023-01-17T00:22:47.184Z,98803.30
2023-01-17T00:25:56.867Z,98799.37
2023-01-17T00:28:36.660Z,98789.84
2023-01-17T00:31:26.555Z,98779.68
2023-01-17T00:33:55.708Z,98766.89
2023-01-17T00:37:15.031Z,98765.86
2023-01-17T00:40:09.162Z,98773.06
2023-01-17T00:42:50.528Z,98769.17
2023-01-17T00:46:05.484Z,98773.17
2023-01-17T00:49:14.686Z,98763.89
2023-01-17T00:52:05.681Z,98754.69
2023-01-17T00:54:53.354Z,98748.67
2023-01-17T00:57:42.746Z,98748.34
2023-01-17T01:00:30.991Z,98750.10
2023-01-17T01:03:17.772Z,98747.64
2023-01-17T01:06:04.453Z,98750.58
2023-01-17T01:08:51.031Z,98747.68
2023-01-17T01:11:39.211Z,98745.70
2023-01-17T01:14:29.112Z,98740.54
2023-01-17T01:17:17.302Z,98731.59
2023-01-17T01:20:04.543Z,98726.02
2023-01-17T01:22:51.847Z,98720.90
2023-01-17T01:25:39.235Z,98718.02
2023-01-17T01:28:28.988Z,98720.00
2023-01-17T01:31:23.719Z,98717.50
2023-01-17T01:33:53.881Z,98718.56
2023-01-17T01:36:23.452Z,98708.95
2023-01-17T01:38:53.356Z,98702.70
2023-01-17T01:41:23.406Z,98707.90
2023-01-17T01:43:54.650Z,98716.17
2023-01-17T01:46:28.990Z,98706.81
2023-01-17T01:49:05.984Z,98686.83
2023-01-17T01:51:46.392Z,98687.48
2023-01-17T01:54:17.035Z,98692.52
2023-01-17T01:56:49.194Z,98685.41
2023-01-17T01:59:23.889Z,98680.70
2023-01-17T02:01:55.907Z,98678.14
2023-01-17T02:04:26.159Z,98669.52
2023-01-17T02:07:09.023Z,98662.92
2023-01-17T02:09:39.185Z,98648.74
2023-01-17T02:12:09.748Z,98627.13
2023-01-17T02:14:38.928Z,98628.57
2023-01-17T02:17:34.054Z,98639.31
2023-01-17T02:20:25.886Z,98647.88
2023-01-17T02:23:46.952Z,98658.55
2023-01-17T02:27:00.591Z,98671.54
2023-01-17T02:30:10.682Z,98669.29
2023-01-17T02:33:51.595Z,98676.77
2023-01-17T02:37:12.025Z,98669.97
2023-01-17T02:39:49.533Z,98674.15
2023-01-17T02:42:20.515Z,98679.83
2023-01-17T02:44:50.889Z,98674.80
2023-01-17T02:47:22.012Z,98668.03
2023-01-17T02:49:55.150Z,98664.32
2023-01-17T02:52:46.059Z,98662.23
2023-01-17T02:55:38.056Z,98656.17
2023-01-17T02:58:24.813Z,98648.93
2023-01-17T03:00:52.988Z,98654.88
2023-01-17T03:03:27.602Z,98660.02
2023-01-17T03:05:59.703Z,98670.67
2023-01-17T03:08:29.688Z,98673.00
2023-01-17T03:10:57.663Z,98669.56
2023-01-17T03:13:27.052Z,98670.70
2023-01-17T03:15:55.546Z,98678.72
2023-01-17T03:18:23.744Z,98681.33
2023-01-17T03:20:51.689Z,98689.67
2023-01-17T03:23:19.531Z,98695.05
2023-01-17T03:25:47.419Z,98690.10
2023-01-17T03:28:15.367Z,98705.99
2023-01-17T03:30:43.707Z,98711.89
2023-01-17T03:33:11.563Z,98707.14
2023-01-17T03:35:41.772Z,98706.52
2023-01-17T03:38:09.629Z,98701.42
2023-01-17T03:40:37.768Z,98691.11
2023-01-17T03:43:05.719Z,98687.36
2023-01-17T03:45:36.299Z,98687.54
2023-01-17T03:48:10.715Z,98693.05
2023-01-17T03:50:41.017Z,98697.05
2023-01-17T03:53:14.186Z,98692.37
2023-01-17T03:56:23.032Z,98687.23
2023-01-17T03:59:13.176Z,98684.21
2023-01-17T04:01:42.846Z,98670.80
2023-01-17T04:04:10.928Z,98666.48
2023-01-17T04:06:44.197Z,98673.37
2023-01-17T04:09:14.650Z,98681.47
2023-01-17T04:11:51.404Z,98694.98
2023-01-17T04:14:21.185Z,98699.80
2023-01-17T04:16:54.652Z,98705.44
2023-01-17T04:19:27.159Z,98710.54
2023-01-17T04:21:58.892Z,98703.80
2023-01-17T04:24:29.454Z,98703.00
2023-01-17T04:27:00.995Z,98701.13
2023-01-17T04:29:30.921Z,98699.74
2023-01-17T04:31:59.674Z,98697.17
2023-01-17T04:34:46.689Z,98697.02
2023-01-17T04:37:25.216Z,98699.98
2023-01-17T04:40:01.429Z,98700.98
2023-01-17T04:42:30.641Z,98707.33
2023-01-17T04:44:58.535Z,98707.17
2023-01-17T04:47:26.514Z,98702.73
2023-01-17T04:49:56.736Z,98686.84
2023-01-17T04:52:25.796Z,98693.91
2023-01-17T04:54:54.004Z,98698.71
2023-01-17T04:57:22.873Z,98704.06
2023-01-17T04:59:50.883Z,98703.73
2023-01-17T05:02:18.835Z,98699.11
2023-01-17T05:04:46.862Z,98690.26
2023-01-17T05:07:17.983Z,98690.42
2023-01-17T05:09:46.068Z,98687.13
2023-01-17T05:12:15.158Z,98691.97
2023-01-17T05:14:43.880Z,98699.55
2023-01-17T05:17:11.989Z,98706.61
2023-01-17T05:19:40.102Z,98704.34
2023-01-17T05:22:14.989Z,98707.96
2023-01-17T05:24:43.905Z,98713.65
2023-01-17T05:27:14.815Z,98719.48
2023-01-17T05:29:43.074Z,98724.67
2023-01-17T05:32:12.067Z,98728.97
2023-01-17T05:34:40.293Z,98722.91
2023-01-17T05:37:14.080Z,98719.46
2023-01-17T05:39:42.217Z,98724.27
2023-01-17T05:42:10.369Z,98725.25
2023-01-17T05:44:40.671Z,98722.18
2023-01-17T05:47:13.086Z,98719.29
2023-01-17T05:49:42.967Z,98717.20
2023-01-17T05:52:14.221Z,98716.19
2023-01-17T05:54:43.231Z,98713.21
2023-01-17T05:57:13.649Z,98718.22
2023-01-17T05:59:43.818Z,98719.83
2023-01-17T06:02:11.789Z,98713.73
2023-01-17T06:04:41.024Z,98704.20
2023-01-17T06:07:10.922Z,98705.72
2023-01-17T06:09:39.043Z,98709.36
2023-01-17T06:12:08.508Z,98715.06
2023-01-17T06:14:37.479Z,98713.36
2023-01-17T06:17:06.709Z,98714.30
2023-01-17T06:19:34.889Z,98711.60
2023-01-17T06:22:06.584Z,98707.20
2023-01-17T06:24:35.442Z,98710.70
2023-01-17T06:27:04.557Z,98709.98
2023-01-17T06:29:33.828Z,98710.15
2023-01-17T06:32:01.957Z,98714.27
2023-01-17T06:34:30.160Z,98722.01
2023-01-17T06:36:58.242Z,98735.27
2023-01-17T06:39:26.212Z,98741.19
2023-01-17T06:41:54.911Z,98747.77
2023-01-17T06:44:22.797Z,98748.13
2023-01-17T06:46:53.140Z,98748.14
2023-01-17T06:49:23.905Z,98746.39
2023-01-17T06:51:53.100Z,98757.27
2023-01-17T06:54:21.518Z,98761.13
2023-01-17T06:56:49.328Z,98758.90
2023-01-17T06:59:17.190Z,98760.64
2023-01-17T07:01:45.595Z,98764.46
2023-01-17T07:04:13.327Z,98770.52
2023-01-17T07:06:41.173Z,98772.91
2023-01-17T07:09:09.069Z,98773.75
2023-01-17T07:11:37.005Z,98766.89
2023-01-17T07:14:04.805Z,98764.48
2023-01-17T07:16:36.659Z,98758.84
2023-01-17T07:19:05.726Z,98759.23
2023-01-17T07:21:34.893Z,98761.46
2023-01-17T07:24:02.718Z,98760.34
2023-01-17T07:26:30.716Z,98765.71
2023-01-17T07:29:03.756Z,98762.38
2023-01-17T07:31:41.161Z,98756.20
2023-01-17T07:34:14.901Z,98754.33
2023-01-17T07:36:45.966Z,98751.79
2023-01-17T07:39:14.451Z,98761.27
2023-01-17T07:41:45.029Z,98759.78
2023-01-17T07:44:13.694Z,98762.56
2023-01-17T07:46:41.650Z,98764.20
2023-01-17T07:49:11.879Z,98765.43
2023-01-17T07:52:00.118Z,98758.75
2023-01-17T07:54:29.630Z,98752.73
2023-01-17T07:56:59.681Z,98755.66
2023-01-17T07:59:27.540Z,98769.73
2023-01-17T08:01:56.026Z,98776.30
2023-01-17T08:04:27.927Z,98777.52
2023-01-17T08:06:56.153Z,98777.73
2023-01-17T08:09:24.299Z,98774.77
2023-01-17T08:11:52.480Z,98768.16
2023-01-17T08:14:20.485Z,98765.67
2023-01-17T08:16:48.268Z,98766.58
2023-01-17T08:19:18.549Z,98762.46
2023-01-17T08:21:50.878Z,98760.58
2023-01-17T08:24:19.904Z,98763.80
2023-01-17T08:26:47.873Z,98762.73
2023-01-17T08:29:20.378Z,98765.00
2023-01-17T08:31:48.710Z,98775.73
2023-01-17T08:34:18.124Z,98780.89
2023-01-17T08:36:48.376Z,98794.85
2023-01-17T08:39:18.746Z,98792.14
2023-01-17T08:41:48.756Z,98791.61
2023-01-17T08:44:17.303Z,98799.90
2023-01-17T08:46:45.269Z,98807.20
2023-01-17T08:49:14.676Z,98817.05
2023-01-17T08:51:42.608Z,98814.17
2023-01-17T08:54:14.629Z,98821.67
2023-01-17T08:56:43.121Z,98820.48
2023-01-17T08:59:11.579Z,98807.49
2023-01-17T09:01:46.074Z,98821.67
2023-01-17T09:04:14.299Z,98818.21
2023-01-17T09:06:44.309Z,98821.64
2023-01-17T09:09:13.840Z,98822.57
2023-01-17T09:11:42.540Z,98805.14
2023-01-17T09:14:14.013Z,98801.86
2023-01-17T09:16:42.708Z,98817.13
2023-01-17T09:19:10.768Z,98828.08
2023-01-17T09:21:39.837Z,98802.11
2023-01-17T09:24:09.090Z,98804.70
2023-01-17T09:26:37.234Z,98818.85
2023-01-17T09:29:07.031Z,98794.73
2023-01-17T09:31:35.035Z,98780.11
2023-01-17T09:34:03.504Z,98788.53
2023-01-17T09:36:32.055Z,98781.34
2023-01-17T09:39:02.283Z,98784.77
2023-01-17T09:41:34.777Z,98788.23
2023-01-17T09:44:22.384Z,98785.90
2023-01-17T09:46:53.991Z,98781.83
2023-01-17T09:49:39.207Z,98780.31
2023-01-17T09:52:08.889Z,98797.48
2023-01-17T09:54:41.749Z,98801.02
2023-01-17T09:57:19.714Z,98796.95
2023-01-17T10:00:03.187Z,98781.94
2023-01-17T10:02:53.543Z,98780.54
2023-01-17T10:05:40.053Z,98780.52
2023-01-17T10:08:27.069Z,98785.71
2023-01-17T10:10:56.165Z,98791.54
2023-01-17T10:13:44.110Z,98791.66
2023-01-17T10:16:15.132Z,98783.04
2023-01-17T10:18:54.337Z,98780.35
2023-01-17T10:21:43.876Z,98782.00
2023-01-17T10:27:52.609Z,98776.95
2023-01-17T10:30:51.266Z,98783.64
2023-01-17T10:33:42.506Z,98782.98
2023-01-17T10:37:06.746Z,98784.42
2023-01-17T10:40:16.491Z,98779.70
2023-01-17T10:43:24.089Z,98766.13
2023-01-17T10:54:27.915Z,98756.54
2023-01-17T11:01:30.745Z,98743.91
2023-01-17T11:08:26.738Z,98739.66
2023-01-17T11:15:28.919Z,98744.03
2023-01-17T11:18:24.788Z,98747.78
2023-01-17T11:21:05.374Z,98742.96
2023-01-17T11:23:39.352Z,98737.48
2023-01-17T11:33:50.995Z,98724.84
2023-01-17T11:52:39.192Z,98703.90
2023-01-17T12:08:12.959Z,98697.04
2023-01-17T12:15:27.740Z,98697.85
2023-01-17T12:22:04.826Z,98698.33
2023-01-17T12:47:29.070Z,98658.02
2023-01-17T13:02:24.815Z,98672.34
2023-01-17T13:12:12.404Z,98654.47
2023-01-17T13:31:19.706Z,98654.23
2023-01-17T13:50:57.235Z,98651.10
2023-01-17T14:00:46.806Z,98640.20
2023-01-17T14:03:19.823Z,98632.73
2023-01-17T14:15:04.973Z,98637.38
2023-01-17T14:17:56.982Z,98636.83
2023-01-17T14:28:20.479Z,98638.00
2023-01-17T14:37:30.495Z,98626.84
2023-01-17T14:44:37.536Z,98636.91
2023-01-17T15:01:35.198Z,98616.75
2023-01-17T15:10:14.632Z,98630.52
2023-01-17T15:17:36.908Z,98632.28
2023-01-17T15:20:22.175Z,98631.58
2023-01-17T15:23:13.832Z,98636.06
2023-01-17T15:26:03.002Z,98632.61
2023-01-17T15:31:59.482Z,98627.09
2023-01-17T15:38:15.632Z,98627.44
2023-01-17T15:52:14.905Z,98614.27
2023-01-17T15:55:01.013Z,98612.02
2023-01-17T15:57:41.299Z,98616.17
2023-01-17T16:01:30.946Z,98617.73
2023-01-17T16:22:01.278Z,98605.77
2023-01-17T16:27:28.407Z,98603.52
2023-01-17T16:45:47.789Z,98602.23
2023-01-17T17:00:01.972Z,98600.02
2023-01-17T17:07:37.767Z,98579.77
2023-01-17T17:11:10.853Z,98564.36
2023-01-17T17:13:41.150Z,98558.29
2023-01-17T17:35:35.855Z,98499.23
2023-01-17T17:51:13.931Z,98495.77
2023-01-17T17:58:02.759Z,98496.80
2023-01-17T18:03:57.940Z,98486.40
2023-01-17T18:06:57.550Z,98472.36
2023-01-17T18:16:57.874Z,98466.38
2023-01-17T18:19:31.012Z,98467.71
2023-01-17T18:32:33.459Z,98460.12
2023-01-17T18:35:03.827Z,98459.74
2023-01-17T18:43:58.997Z,98468.96
2023-01-17T18:47:07.696Z,98474.38
2023-01-17T18:50:00.098Z,98474.73
2023-01-17T18:56:05.693Z,98468.63
2023-01-17T18:59:38.756Z,98464.27
2023-01-17T19:06:17.341Z,98451.20
2023-01-17T19:14:51.235Z,98459.81
2023-01-17T19:17:54.966Z,98465.85
2023-01-17T19:23:55.913Z,98473.26
2023-01-17T19:27:17.771Z,98464.69
2023-01-17T19:33:27.544Z,98449.89
2023-01-17T19:39:31.311Z,98431.08
2023-01-17T19:42:01.142Z,98428.52
2023-01-17T19:50:54.677Z,98438.73
2023-01-17T19:53:24.840Z,98433.61
2023-01-17T19:56:00.305Z,98428.89
2023-01-17T19:58:33.998Z,98426.06
2023-01-17T20:01:15.677Z,98429.77
2023-01-17T20:03:48.429Z,98425.27
2023-01-17T20:06:52.297Z,98421.95
2023-01-17T20:09:35.824Z,98410.39
2023-01-17T20:12:03.969Z,98403.98
2023-01-17T20:14:31.998Z,98404.71
2023-01-17T20:17:03.162Z,98405.02
2023-01-17T20:19:32.202Z,98400.98
2023-01-17T20:25:07.165Z,98396.94
2023-01-17T20:30:34.782Z,98387.23
2023-01-17T20:33:03.477Z,98386.61
2023-01-17T20:38:27.708Z,98375.37
2023-01-17T20:41:42.124Z,98385.62
2023-01-17T20:44:13.110Z,98382.47
2023-01-17T20:50:43.793Z,98377.59
2023-01-17T20:53:13.648Z,98373.20
2023-01-17T20:55:42.669Z,98369.13
2023-01-17T20:58:11.343Z,98367.52
2023-01-17T21:00:42.477Z,98368.78
2023-01-17T21:06:02.923Z,98356.19
2023-01-17T21:08:54.109Z,98359.87
2023-01-17T21:11:24.865Z,98365.69
2023-01-17T21:13:53.699Z,98369.02
2023-01-17T21:20:36.772Z,98363.57
2023-01-17T21:27:14.593Z,98342.58
2023-01-17T21:29:50.298Z,98347.36
2023-01-17T21:32:18.864Z,98346.92
2023-01-17T21:34:47.937Z,98342.23
2023-01-17T21:40:30.223Z,98332.48
2023-01-17T21:43:00.892Z,98336.16
2023-01-17T21:45:32.258Z,98330.55
2023-01-17T21:50:47.648Z,98327.19
2023-01-17T21:57:51.777Z,98321.05
2023-01-17T22:00:20.662Z,98318.65
2023-01-17T22:09:20.424Z,98282.38
2023-01-17T22:11:50.055Z,98281.05
2023-01-17T22:27:38.368Z,98282.21
2023-01-17T22:34:10.700Z,98282.09
2023-01-17T22:36:41.799Z,98287.65
2023-01-17T22:39:11.417Z,98284.35
2023-01-17T22:41:41.885Z,98281.52
2023-01-17T22:44:34.356Z,98281.00
2023-01-17T22:47:03.401Z,98274.27
2023-01-17T22:49:31.829Z,98270.48
2023-01-17T22:52:02.373Z,98266.80
2023-01-17T22:54:36.240Z,98267.34
2023-01-17T22:57:08.594Z,98273.56
2023-01-17T23:00:06.416Z,98273.76
2023-01-17T23:02:34.722Z,98264.85
2023-01-17T23:05:03.206Z,98261.67
2023-01-17T23:07:43.846Z,98273.04
2023-01-17T23:10:17.951Z,98265.42
2023-01-17T23:17:39.628Z,98275.96
2023-01-17T23:20:09.547Z,98273.41
2023-01-17T23:22:38.206Z,98279.55
2023-01-17T23:29:08.879Z,98287.35
2023-01-17T23:31:36.829Z,98286.85
2023-01-17T23:34:04.773Z,98290.92
2023-01-17T23:36:45.327Z,98296.30
2023-01-17T23:39:13.498Z,98291.66
2023-01-17T23:42:00.006Z,98291.76
2023-01-17T23:44:31.902Z,98298.51
2023-01-17T23:47:00.208Z,98291.45
2023-01-17T23:49:29.720Z,98295.14
2023-01-17T23:51:57.562Z,98295.34
2023-01-17T23:54:25.466Z,98294.51
2023-01-17T23:56:53.528Z,98291.27
2023-01-17T23:59:21.287Z,98285.20
